createdAt,value
2017-12-06T00:02:04.466Z,18.60
2017-12-06T00:04:34.700Z,23.67
2017-12-06T00:07:20.753Z,15.93
2017-12-06T00:09:49.679Z,22.53
2017-12-06T00:12:27.299Z,17.03
2017-12-06T00:15:00.994Z,17.63
2017-12-06T00:17:29.164Z,16.83
2017-12-06T00:19:57.285Z,17.27
2017-12-06T00:22:31.976Z,19.00
2017-12-06T00:25:02.187Z,17.57
2017-12-06T00:27:49.350Z,17.83
2017-12-06T00:30:35.213Z,17.53
2017-12-06T00:33:05.237Z,19.00
2017-12-06T00:35:43.184Z,15.30
2017-12-06T00:38:21.065Z,15.87
2017-12-06T00:40:57.709Z,20.90
2017-12-06T00:43:26.089Z,15.77
2017-12-06T00:45:58.495Z,17.37
2017-12-06T00:48:29.205Z,20.13
2017-12-06T00:50:58.336Z,17.47
2017-12-06T00:53:27.946Z,16.00
2017-12-06T00:55:56.740Z,17.53
2017-12-06T00:58:27.091Z,20.50
2017-12-06T01:00:55.994Z,17.63
2017-12-06T01:03:24.136Z,20.63
2017-12-06T01:05:52.263Z,18.83
2017-12-06T01:08:21.233Z,20.37
2017-12-06T01:10:54.407Z,18.07
2017-12-06T01:13:26.563Z,20.27
2017-12-06T01:15:56.535Z,18.97
2017-12-06T01:18:25.754Z,16.50
2017-12-06T01:20:55.983Z,20.00
2017-12-06T01:23:24.126Z,22.73
2017-12-06T01:25:53.270Z,19.00
2017-12-06T01:28:31.990Z,16.73
2017-12-06T01:31:05.597Z,20.83
2017-12-06T01:33:35.660Z,22.23
2017-12-06T01:36:04.846Z,17.23
2017-12-06T01:38:34.956Z,20.57
2017-12-06T01:41:04.832Z,22.40
2017-12-06T01:43:32.984Z,19.43
2017-12-06T01:46:05.726Z,19.37
2017-12-06T01:48:46.470Z,21.27
2017-12-06T01:51:19.533Z,20.30
2017-12-06T01:53:48.480Z,17.27
2017-12-06T01:56:18.542Z,18.53
2017-12-06T01:58:52.298Z,18.13
2017-12-06T02:01:33.383Z,17.23
2017-12-06T02:04:04.295Z,17.60
2017-12-06T02:09:30.156Z,15.90
2017-12-06T02:12:02.226Z,16.20
2017-12-06T02:14:30.379Z,15.57
2017-12-06T02:16:58.557Z,18.23
2017-12-06T02:19:33.126Z,16.30
2017-12-06T02:22:01.459Z,17.20
2017-12-06T02:24:38.721Z,15.70
2017-12-06T02:30:00.737Z,17.40
2017-12-06T02:32:28.986Z,17.90
2017-12-06T02:34:57.123Z,14.30
2017-12-06T02:37:29.988Z,13.40
2017-12-06T02:40:10.034Z,15.00
2017-12-06T02:42:52.983Z,15.17
2017-12-06T02:45:31.390Z,18.20
2017-12-06T02:48:06.092Z,14.60
2017-12-06T02:50:36.467Z,15.60
2017-12-06T02:53:22.902Z,15.20
2017-12-06T02:55:51.087Z,15.87
2017-12-06T02:58:20.300Z,16.30
2017-12-06T03:00:49.367Z,15.40
2017-12-06T03:03:19.420Z,15.33
2017-12-06T03:05:50.881Z,17.27
2017-12-06T03:08:19.019Z,14.10
2017-12-06T03:10:48.110Z,14.43
2017-12-06T03:13:17.098Z,15.43
2017-12-06T03:15:45.239Z,15.90
2017-12-06T03:18:20.190Z,17.20
2017-12-06T03:20:50.270Z,16.17
2017-12-06T03:23:18.536Z,16.20
2017-12-06T03:26:00.824Z,19.60
2017-12-06T03:28:33.060Z,18.57
2017-12-06T03:31:01.897Z,14.13
2017-12-06T03:33:31.182Z,17.23
2017-12-06T03:35:59.370Z,14.93
2017-12-06T03:38:32.250Z,21.40
2017-12-06T03:41:02.260Z,15.30
2017-12-06T03:43:32.436Z,18.37
2017-12-06T03:46:02.664Z,16.90
2017-12-06T03:48:35.010Z,15.17
2017-12-06T03:51:19.212Z,17.80
2017-12-06T03:53:48.293Z,21.53
2017-12-06T03:56:17.459Z,15.47
2017-12-06T03:58:45.588Z,17.80
2017-12-06T04:01:21.221Z,16.50
2017-12-06T04:03:50.337Z,17.10
2017-12-06T04:06:19.515Z,17.43
2017-12-06T04:08:57.722Z,15.77
2017-12-06T04:11:27.215Z,15.27
2017-12-06T04:13:55.516Z,15.00
2017-12-06T04:16:25.629Z,15.23
2017-12-06T04:18:53.798Z,18.30
2017-12-06T04:21:26.658Z,14.93
2017-12-06T04:23:54.926Z,13.73
2017-12-06T04:26:23.949Z,13.10
2017-12-06T04:28:52.215Z,11.20
2017-12-06T04:31:23.247Z,13.10
2017-12-06T04:33:51.529Z,16.43
2017-12-06T04:36:29.235Z,15.47
2017-12-06T04:38:57.531Z,15.37
2017-12-06T04:41:30.383Z,15.00
2017-12-06T04:44:02.361Z,18.40
2017-12-06T04:46:32.399Z,14.73
2017-12-06T04:49:03.628Z,13.20
2017-12-06T04:54:33.882Z,12.33
2017-12-06T04:57:02.258Z,16.13
2017-12-06T04:59:32.538Z,15.27
2017-12-06T05:02:00.727Z,14.13
2017-12-06T05:04:30.757Z,13.37
2017-12-06T05:06:59.027Z,16.77
2017-12-06T05:09:31.930Z,16.27
2017-12-06T05:12:00.078Z,16.47
2017-12-06T05:14:31.628Z,15.03
2017-12-06T05:17:00.761Z,15.03
2017-12-06T05:19:28.911Z,15.10
2017-12-06T05:22:02.448Z,13.50
2017-12-06T05:24:35.182Z,14.60
2017-12-06T05:27:07.791Z,15.97
2017-12-06T05:29:40.789Z,15.10
2017-12-06T05:32:18.255Z,15.47
2017-12-06T05:34:50.204Z,16.03
2017-12-06T05:37:24.276Z,15.73
2017-12-06T05:39:54.392Z,17.90
2017-12-06T05:42:32.699Z,17.13
2017-12-06T05:45:03.728Z,15.63
2017-12-06T05:47:50.896Z,17.67
2017-12-06T05:50:19.239Z,13.53
2017-12-06T05:52:58.244Z,15.87
2017-12-06T05:55:30.057Z,17.90
2017-12-06T05:58:01.162Z,14.47
2017-12-06T06:00:29.424Z,15.30
2017-12-06T06:02:58.912Z,28.07
2017-12-06T06:05:31.953Z,15.60
2017-12-06T06:08:00.285Z,14.57
2017-12-06T06:10:29.511Z,13.30
2017-12-06T06:13:01.132Z,13.43
2017-12-06T06:15:29.271Z,12.50
2017-12-06T06:17:57.491Z,14.53
2017-12-06T06:20:25.678Z,15.27
2017-12-06T06:22:54.765Z,15.33
2017-12-06T06:25:24.686Z,12.30
2017-12-06T06:27:57.980Z,13.30
2017-12-06T06:30:33.570Z,13.83
2017-12-06T06:33:01.844Z,13.03
2017-12-06T06:38:23.200Z,13.87
2017-12-06T06:41:02.586Z,16.20
2017-12-06T06:46:29.950Z,12.03
2017-12-06T06:51:58.822Z,12.77
2017-12-06T06:54:30.083Z,12.70
2017-12-06T06:57:03.156Z,13.73
2017-12-06T06:59:31.565Z,13.37
2017-12-06T07:01:59.735Z,15.30
2017-12-06T07:07:18.949Z,17.10
2017-12-06T07:13:01.874Z,9.17
2017-12-06T07:15:34.277Z,11.73
2017-12-06T07:18:02.556Z,14.50
2017-12-06T07:20:34.322Z,12.77
2017-12-06T07:26:32.485Z,20.13
2017-12-06T07:35:20.257Z,13.03
2017-12-06T07:37:56.460Z,15.80
2017-12-06T07:40:42.330Z,15.70
2017-12-06T07:43:11.281Z,11.50
2017-12-06T07:45:46.898Z,13.93
2017-12-06T07:48:18.116Z,12.90
2017-12-06T07:50:49.822Z,12.87
2017-12-06T07:53:18.021Z,11.67
2017-12-06T07:55:46.237Z,11.63
2017-12-06T07:58:20.142Z,12.80
2017-12-06T08:00:50.519Z,10.43
2017-12-06T08:03:18.926Z,10.40
2017-12-06T08:06:04.562Z,10.30
2017-12-06T08:08:35.826Z,17.30
2017-12-06T08:11:04.422Z,10.33
2017-12-06T08:13:37.089Z,9.33
2017-12-06T08:16:05.326Z,10.10
2017-12-06T08:18:33.507Z,8.70
2017-12-06T08:21:01.782Z,9.00
2017-12-06T08:23:33.091Z,8.93
2017-12-06T08:26:01.203Z,10.37
2017-12-06T08:28:29.663Z,9.33
2017-12-06T08:30:57.978Z,13.03
2017-12-06T08:33:27.628Z,10.80
2017-12-06T08:35:57.884Z,10.40
2017-12-06T08:38:28.218Z,10.93
2017-12-06T08:40:56.605Z,13.77
2017-12-06T08:43:24.845Z,14.63
2017-12-06T08:45:53.357Z,10.27
2017-12-06T08:48:22.731Z,13.70
2017-12-06T08:50:51.515Z,11.23
2017-12-06T08:53:24.464Z,10.80
2017-12-06T08:55:54.864Z,11.77
2017-12-06T08:58:24.214Z,9.23
2017-12-06T09:00:52.448Z,10.77
2017-12-06T09:03:20.628Z,12.70
2017-12-06T09:05:49.598Z,10.33
2017-12-06T09:08:23.242Z,10.33
2017-12-06T09:10:51.689Z,12.50
2017-12-06T09:13:24.217Z,8.40
2017-12-06T09:15:54.310Z,7.70
2017-12-06T09:18:22.499Z,8.33
2017-12-06T09:20:59.603Z,7.90
2017-12-06T09:23:28.169Z,8.90
2017-12-06T09:25:56.656Z,8.93
2017-12-06T09:28:27.886Z,7.57
2017-12-06T09:30:58.443Z,7.83
2017-12-06T09:33:28.738Z,8.60
2017-12-06T09:35:57.008Z,6.97
2017-12-06T09:38:25.218Z,7.30
2017-12-06T09:40:58.133Z,7.30
2017-12-06T09:43:29.657Z,7.37
2017-12-06T09:45:57.761Z,6.73
2017-12-06T09:48:28.585Z,7.93
2017-12-06T09:50:56.894Z,7.13
2017-12-06T09:53:25.051Z,7.13
2017-12-06T09:55:53.239Z,8.43
2017-12-06T09:58:23.705Z,7.80
2017-12-06T10:00:51.875Z,8.87
2017-12-06T10:03:20.067Z,8.70
2017-12-06T10:05:48.326Z,8.23
2017-12-06T10:08:16.567Z,7.20
2017-12-06T10:10:44.817Z,6.90
2017-12-06T10:13:13.268Z,6.77
2017-12-06T10:15:41.516Z,9.37
2017-12-06T10:18:13.557Z,9.20
2017-12-06T10:20:47.466Z,7.43
2017-12-06T10:23:21.249Z,7.40
2017-12-06T10:25:49.477Z,8.60
2017-12-06T10:28:17.987Z,9.63
2017-12-06T10:30:46.125Z,11.07
2017-12-06T10:33:26.894Z,7.80
2017-12-06T10:35:57.240Z,7.90
2017-12-06T10:38:25.568Z,8.03
2017-12-06T10:40:54.968Z,5.63
2017-12-06T10:43:30.685Z,8.40
2017-12-06T10:45:58.943Z,5.90
2017-12-06T10:48:27.070Z,8.30
2017-12-06T10:50:55.413Z,6.50
2017-12-06T10:53:27.731Z,5.77
2017-12-06T10:55:56.096Z,7.03
2017-12-06T10:58:25.412Z,6.53
2017-12-06T11:00:54.819Z,5.90
2017-12-06T11:03:24.473Z,9.10
2017-12-06T11:05:54.806Z,7.20
2017-12-06T11:08:23.147Z,10.33
2017-12-06T11:10:52.340Z,5.83
2017-12-06T11:13:20.731Z,5.50
2017-12-06T11:15:49.606Z,6.07
2017-12-06T11:18:29.291Z,9.77
2017-12-06T11:21:03.280Z,8.60
2017-12-06T11:23:31.628Z,7.07
2017-12-06T11:26:00.858Z,8.20
2017-12-06T11:28:29.404Z,7.20
2017-12-06T11:31:02.359Z,8.20
2017-12-06T11:33:31.306Z,7.03
2017-12-06T11:36:01.581Z,6.87
2017-12-06T11:41:48.261Z,7.00
2017-12-06T11:44:17.159Z,11.60
2017-12-06T11:46:45.439Z,15.10
2017-12-06T11:49:15.840Z,9.90
2017-12-06T11:51:46.290Z,9.27
2017-12-06T11:57:31.567Z,9.60
2017-12-06T11:59:59.753Z,8.20
2017-12-06T12:02:30.161Z,8.47
2017-12-06T12:05:01.285Z,9.20
2017-12-06T12:07:29.589Z,10.90
2017-12-06T12:09:57.708Z,10.07
2017-12-06T12:12:33.218Z,8.60
2017-12-06T12:15:10.793Z,11.97
2017-12-06T12:17:40.863Z,10.70
2017-12-06T12:20:10.249Z,6.67
2017-12-06T12:22:39.439Z,7.90
2017-12-06T12:25:07.654Z,7.43
2017-12-06T12:27:36.156Z,11.80
2017-12-06T12:30:06.707Z,6.87
2017-12-06T12:32:38.999Z,5.90
2017-12-06T12:35:07.458Z,8.63
2017-12-06T12:37:36.476Z,6.17
2017-12-06T12:40:04.785Z,6.00
2017-12-06T12:42:32.921Z,7.20
2017-12-06T12:45:01.423Z,6.00
2017-12-06T12:47:30.544Z,5.57
2017-12-06T12:49:58.672Z,5.93
2017-12-06T12:52:30.224Z,7.03
2017-12-06T12:54:58.415Z,4.73
2017-12-06T12:57:32.742Z,4.87
2017-12-06T13:00:01.400Z,5.30
2017-12-06T13:02:32.419Z,5.10
2017-12-06T13:05:00.749Z,4.47
2017-12-06T13:07:29.836Z,5.70
2017-12-06T13:09:59.638Z,8.20
2017-12-06T13:12:28.744Z,5.93
2017-12-06T13:14:57.955Z,4.40
2017-12-06T13:17:27.983Z,5.07
2017-12-06T13:19:56.307Z,3.33
2017-12-06T13:22:32.515Z,4.27
2017-12-06T13:25:01.680Z,4.57
2017-12-06T13:27:34.207Z,6.33
2017-12-06T13:30:04.418Z,6.27
2017-12-06T13:32:35.910Z,3.37
2017-12-06T13:35:07.935Z,4.87
2017-12-06T13:37:43.094Z,4.83
2017-12-06T13:40:11.291Z,5.90
2017-12-06T13:42:41.407Z,4.17
2017-12-06T13:45:09.549Z,3.10
2017-12-06T13:47:37.654Z,2.93
2017-12-06T13:50:05.804Z,3.67
2017-12-06T13:52:51.145Z,6.03
2017-12-06T13:55:20.520Z,2.83
2017-12-06T13:57:48.684Z,3.40
2017-12-06T14:00:22.222Z,3.33
2017-12-06T14:02:52.853Z,3.13
2017-12-06T14:05:20.967Z,4.00
2017-12-06T14:07:51.886Z,3.53
2017-12-06T14:10:25.715Z,3.30
2017-12-06T14:12:53.997Z,3.03
2017-12-06T14:15:24.915Z,2.63
2017-12-06T14:17:53.335Z,2.23
2017-12-06T14:20:23.420Z,3.50
2017-12-06T14:22:52.391Z,6.33
2017-12-06T14:25:22.776Z,4.07
2017-12-06T14:27:54.380Z,6.67
2017-12-06T14:30:22.550Z,2.90
2017-12-06T14:32:52.674Z,3.40
2017-12-06T14:35:21.735Z,4.20
2017-12-06T14:37:51.956Z,3.77
2017-12-06T14:40:22.394Z,2.87
2017-12-06T14:42:55.223Z,4.40
2017-12-06T14:45:25.762Z,3.30
2017-12-06T14:47:55.095Z,2.73
2017-12-06T14:50:25.144Z,2.50
2017-12-06T14:52:53.920Z,2.10
2017-12-06T14:55:26.709Z,5.70
2017-12-06T14:57:56.678Z,4.17
2017-12-06T15:00:27.303Z,2.77
2017-12-06T15:02:56.183Z,3.67
2017-12-06T15:05:28.580Z,2.93
2017-12-06T15:07:59.969Z,2.87
2017-12-06T15:10:28.453Z,2.37
2017-12-06T15:12:57.662Z,4.10
2017-12-06T15:15:28.488Z,3.63
2017-12-06T15:17:57.801Z,3.47
2017-12-06T15:20:25.951Z,2.90
2017-12-06T15:23:12.098Z,2.63
2017-12-06T15:25:41.115Z,3.10
2017-12-06T15:28:09.264Z,4.50
2017-12-06T15:30:38.555Z,2.40
2017-12-06T15:33:06.764Z,3.23
2017-12-06T15:35:38.167Z,4.23
2017-12-06T15:38:28.012Z,5.07
2017-12-06T15:40:57.398Z,3.20
2017-12-06T15:43:25.509Z,3.27
2017-12-06T15:45:53.939Z,4.43
2017-12-06T15:48:22.990Z,2.90
2017-12-06T15:50:56.896Z,3.37
2017-12-06T15:53:25.386Z,3.33
2017-12-06T15:56:02.118Z,3.53
2017-12-06T15:58:33.687Z,3.67
2017-12-06T16:01:03.326Z,5.37
2017-12-06T16:03:31.576Z,4.90
2017-12-06T16:06:00.688Z,4.70
2017-12-06T16:08:31.909Z,3.30
2017-12-06T16:11:06.260Z,3.47
2017-12-06T16:13:34.719Z,3.23
2017-12-06T16:16:04.284Z,4.73
2017-12-06T16:18:33.836Z,5.77
2017-12-06T16:21:06.346Z,2.80
2017-12-06T16:23:34.632Z,5.00
2017-12-06T16:26:02.877Z,3.90
2017-12-06T16:28:32.175Z,3.10
2017-12-06T16:31:01.636Z,5.50
2017-12-06T16:33:29.897Z,3.30
2017-12-06T16:36:20.574Z,3.00
2017-12-06T16:38:49.188Z,5.73
2017-12-06T16:41:28.179Z,4.20
2017-12-06T16:43:56.403Z,5.03
2017-12-06T16:46:25.449Z,4.20
2017-12-06T16:48:54.603Z,6.27
2017-12-06T16:51:23.211Z,6.10
2017-12-06T16:54:01.481Z,6.77
2017-12-06T16:56:30.695Z,3.67
2017-12-06T16:59:02.903Z,5.50
2017-12-06T17:01:35.607Z,4.57
2017-12-06T17:04:15.722Z,5.33
2017-12-06T17:06:45.852Z,4.50
2017-12-06T17:09:15.419Z,4.20
2017-12-06T17:11:44.613Z,3.57
2017-12-06T17:14:14.662Z,3.60
2017-12-06T17:16:43.177Z,4.60
2017-12-06T17:19:12.339Z,4.97
2017-12-06T17:21:41.502Z,5.50
2017-12-06T17:24:09.749Z,5.53
2017-12-06T17:26:37.859Z,4.73
2017-12-06T17:29:18.475Z,5.33
2017-12-06T17:31:49.547Z,4.73
2017-12-06T17:34:18.810Z,4.83
2017-12-06T17:36:47.062Z,4.03
2017-12-06T17:39:17.545Z,3.90
2017-12-06T17:41:45.656Z,3.50
2017-12-06T17:44:18.805Z,3.00
2017-12-06T17:46:48.393Z,2.73
2017-12-06T17:49:16.655Z,4.07
2017-12-06T17:51:45.775Z,4.23
2017-12-06T17:54:15.894Z,3.37
2017-12-06T17:56:44.205Z,4.27
2017-12-06T17:59:30.394Z,4.20
2017-12-06T18:01:59.302Z,3.63
2017-12-06T18:04:27.575Z,4.23
2017-12-06T18:06:59.202Z,4.77
2017-12-06T18:09:27.445Z,2.90
2017-12-06T18:11:56.595Z,3.57
2017-12-06T18:14:24.896Z,3.40
2017-12-06T18:16:53.070Z,3.10
2017-12-06T18:19:32.178Z,3.50
2017-12-06T18:22:05.983Z,3.60
2017-12-06T18:24:34.116Z,7.00
2017-12-06T18:27:11.630Z,5.50
2017-12-06T18:29:39.943Z,4.83
2017-12-06T18:32:08.262Z,6.10
2017-12-06T18:34:36.495Z,6.20
2017-12-06T18:37:04.630Z,6.90
2017-12-06T18:39:32.852Z,10.47
2017-12-06T18:42:03.032Z,6.47
2017-12-06T18:44:35.051Z,6.40
2017-12-06T18:47:03.437Z,7.63
2017-12-06T18:49:32.568Z,7.73
2017-12-06T18:52:01.259Z,7.23
2017-12-06T18:54:29.550Z,7.67
2017-12-06T18:56:57.853Z,6.90
2017-12-06T18:59:27.895Z,7.37
2017-12-06T19:01:59.468Z,7.87
2017-12-06T19:04:29.378Z,6.83
2017-12-06T19:06:58.659Z,7.17
2017-12-06T19:09:27.852Z,6.43
2017-12-06T19:11:57.934Z,7.50
2017-12-06T19:14:26.246Z,7.37
2017-12-06T19:16:58.198Z,11.30
2017-12-06T19:19:26.822Z,6.50
2017-12-06T19:21:57.226Z,6.60
2017-12-06T19:24:28.891Z,6.93
2017-12-06T19:27:02.434Z,8.90
2017-12-06T19:29:34.991Z,7.53
2017-12-06T19:32:08.056Z,5.00
2017-12-06T19:34:38.248Z,6.40
2017-12-06T19:37:08.190Z,6.93
2017-12-06T19:39:36.369Z,7.20
2017-12-06T19:42:04.552Z,6.93
2017-12-06T19:44:33.901Z,4.20
2017-12-06T19:47:03.122Z,7.83
2017-12-06T19:52:25.490Z,5.30
2017-12-06T19:54:55.079Z,5.57
2017-12-06T19:57:23.241Z,6.87
2017-12-06T20:02:55.366Z,4.83
2017-12-06T20:05:30.796Z,4.30
2017-12-06T20:07:59.625Z,3.87
2017-12-06T20:10:29.248Z,6.07
2017-12-06T20:12:59.549Z,6.83
2017-12-06T20:15:29.203Z,4.90
2017-12-06T20:18:00.035Z,4.40
2017-12-06T20:20:36.489Z,6.10
2017-12-06T20:23:07.481Z,4.97
2017-12-06T20:25:36.555Z,4.63
2017-12-06T20:28:04.776Z,4.10
2017-12-06T20:30:34.284Z,3.93
2017-12-06T20:33:16.484Z,3.63
2017-12-06T20:35:46.658Z,3.67
2017-12-06T20:38:14.978Z,5.03
2017-12-06T20:41:02.052Z,5.03
2017-12-06T20:43:31.322Z,3.47
2017-12-06T20:46:03.233Z,5.50
2017-12-06T20:48:32.464Z,6.10
2017-12-06T20:51:02.612Z,4.43
2017-12-06T20:53:32.354Z,4.20
2017-12-06T20:56:02.494Z,5.77
2017-12-06T20:58:30.724Z,4.03
2017-12-06T21:01:06.229Z,4.53
2017-12-06T21:03:34.667Z,3.90
2017-12-06T21:06:04.281Z,5.53
2017-12-06T21:08:32.651Z,7.73
2017-12-06T21:11:04.712Z,7.87
2017-12-06T21:13:33.033Z,9.57
2017-12-06T21:16:03.109Z,10.07
2017-12-06T21:18:31.310Z,7.70
2017-12-06T21:20:59.578Z,10.40
2017-12-06T21:23:31.137Z,8.77
2017-12-06T21:25:59.337Z,9.07
2017-12-06T21:28:27.501Z,10.67
2017-12-06T21:30:56.450Z,9.50
2017-12-06T21:33:25.704Z,9.27
2017-12-06T21:35:58.330Z,12.20
2017-12-06T21:38:27.336Z,10.17
2017-12-06T21:40:56.363Z,9.63
2017-12-06T21:43:26.510Z,14.60
2017-12-06T21:45:55.886Z,11.10
2017-12-06T21:48:27.780Z,13.80
2017-12-06T21:50:56.103Z,13.10
2017-12-06T21:53:25.396Z,11.93
2017-12-06T21:55:57.877Z,12.60
2017-12-06T21:58:26.030Z,17.50
2017-12-06T22:00:54.955Z,12.70
2017-12-06T22:03:30.670Z,16.40
2017-12-06T22:05:59.300Z,15.27
2017-12-06T22:08:28.414Z,17.50
2017-12-06T22:11:01.831Z,15.20
2017-12-06T22:13:34.183Z,14.70
2017-12-06T22:16:03.483Z,15.03
2017-12-06T22:18:32.667Z,19.73
2017-12-06T22:21:01.501Z,18.43
2017-12-06T22:23:36.983Z,16.73
2017-12-06T22:26:05.875Z,18.60
2017-12-06T22:28:35.995Z,17.77
2017-12-06T22:31:05.202Z,17.13
2017-12-06T22:33:33.492Z,19.53
2017-12-06T22:36:05.400Z,15.77
2017-12-06T22:38:34.620Z,18.23
2017-12-06T22:41:02.755Z,19.60
2017-12-06T22:43:31.954Z,18.80
2017-12-06T22:46:00.081Z,18.20
2017-12-06T22:48:28.426Z,17.50
2017-12-06T22:50:56.674Z,20.23
2017-12-06T22:53:24.864Z,19.30
2017-12-06T22:55:54.929Z,18.27
2017-12-06T22:58:24.097Z,15.30
2017-12-06T23:00:52.244Z,19.30
2017-12-06T23:03:24.309Z,20.73
2017-12-06T23:05:54.309Z,17.50
2017-12-06T23:08:24.415Z,19.40
2017-12-06T23:10:53.521Z,17.00
2017-12-06T23:13:21.956Z,18.73
2017-12-06T23:15:57.592Z,16.70
2017-12-06T23:18:31.686Z,16.40
2017-12-06T23:21:00.179Z,18.40
2017-12-06T23:23:29.381Z,15.80
2017-12-06T23:26:04.015Z,16.53
2017-12-06T23:28:33.117Z,15.07
2017-12-06T23:31:05.851Z,16.63
2017-12-06T23:33:34.074Z,14.83
2017-12-06T23:36:02.354Z,15.17
2017-12-06T23:38:49.351Z,19.33
2017-12-06T23:41:17.515Z,16.13
2017-12-06T23:43:46.516Z,16.10
2017-12-06T23:46:14.716Z,16.83
2017-12-06T23:48:45.622Z,16.13
2017-12-06T23:51:26.961Z,16.70
2017-12-06T23:53:55.180Z,16.60
2017-12-06T23:56:27.065Z,16.13
2017-12-06T23:59:03.103Z,15.83
